Time;durP1;ratioP1;P1;durP2;ratioP2;P2;SDS_P1;SDS_P2;PMS_P1;PMS_P2;Temp;Humidity;BMP_temperature;BMP_pressure;BME280_temperature;BME280_humidity;BME280_pressure;Samples;Min_cycle;Max_cycle;Signal;HPM_P1;HPM_P2
2021/07/01 00:01:30;;;;;;;;;;;20.60;62.70;;;;;;469929;253;1179;-45
2021/07/01 00:03:31;;;;;;;;;;;20.60;62.70;;;;;;461981;257;1138;-45
2021/07/01 00:05:32;;;;;;;;;;;20.60;62.70;;;;;;470146;253;1221;-45
2021/07/01 00:07:34;;;;;;;;;;;20.60;62.70;;;;;;470087;253;2215;-45
2021/07/01 00:09:35;;;;;;;;;;;20.60;62.60;;;;;;462000;257;1056;-45
2021/07/01 00:11:36;;;;;;;;;;;20.60;62.70;;;;;;470166;253;1076;-45
2021/07/01 00:13:38;;;;;;;;;;;20.60;62.60;;;;;;469768;253;1115;-45
2021/07/01 00:15:39;;;;;;;;;;;20.60;62.70;;;;;;461666;257;1423;-45
2021/07/01 00:17:40;;;;;;;;;;;20.60;62.70;;;;;;469681;253;1064;-45
2021/07/01 00:19:42;;;;;;;;;;;20.60;62.70;;;;;;469818;253;1071;-45
2021/07/01 00:21:43;;;;;;;;;;;20.60;62.70;;;;;;461738;257;1098;-45
2021/07/01 00:23:44;;;;;;;;;;;20.60;62.70;;;;;;469754;253;1080;-45
2021/07/01 00:25:46;;;;;;;;;;;20.60;62.70;;;;;;470192;253;991;-45
2021/07/01 00:27:47;;;;;;;;;;;20.60;62.70;;;;;;461516;258;2152;-45
2021/07/01 00:29:48;;;;;;;;;;;20.60;62.70;;;;;;470048;253;1413;-45
2021/07/01 00:31:50;;;;;;;;;;;20.70;62.80;;;;;;469770;253;1456;-45
2021/07/01 00:33:51;;;;;;;;;;;20.60;62.70;;;;;;461802;257;1055;-45
2021/07/01 00:35:52;;;;;;;;;;;20.60;62.60;;;;;;469721;253;1188;-45
2021/07/01 00:37:54;;;;;;;;;;;20.60;62.70;;;;;;470164;253;1207;-45
2021/07/01 00:39:55;;;;;;;;;;;20.60;62.80;;;;;;461981;257;1065;-45
2021/07/01 00:41:56;;;;;;;;;;;20.60;62.80;;;;;;469766;253;1274;-45
2021/07/01 00:43:58;;;;;;;;;;;20.60;62.80;;;;;;470184;253;1078;-45
2021/07/01 00:45:59;;;;;;;;;;;20.60;62.70;;;;;;461502;258;2215;-45
2021/07/01 00:48:00;;;;;;;;;;;20.60;62.70;;;;;;469703;253;1210;-45
2021/07/01 00:50:02;;;;;;;;;;;20.60;62.70;;;;;;470137;253;1114;-45
2021/07/01 00:52:03;;;;;;;;;;;20.60;62.70;;;;;;461530;257;1365;-45
2021/07/01 00:54:04;;;;;;;;;;;20.60;62.70;;;;;;470174;253;1056;-45
2021/07/01 00:56:07;;;;;;;;;;;20.60;62.70;;;;;;470086;253;1168;-45
2021/07/01 00:58:07;;;;;;;;;;;20.60;62.70;;;;;;461392;258;2051;-45
2021/07/01 01:00:17;;;;;;;;;;;20.60;62.70;;;;;;469830;253;1160;-45
2021/07/01 01:02:09;;;;;;;;;;;20.60;62.70;;;;;;469008;254;1764;-45
2021/07/01 01:04:11;;;;;;;;;;;20.60;62.70;;;;;;462003;257;1052;-45
2021/07/01 01:06:12;;;;;;;;;;;20.60;62.70;;;;;;470075;253;2210;-45
2021/07/01 01:08:13;;;;;;;;;;;20.60;62.60;;;;;;469643;253;1117;-45
2021/07/01 01:10:15;;;;;;;;;;;20.60;62.70;;;;;;461940;257;1071;-45
2021/07/01 01:12:16;;;;;;;;;;;20.60;62.70;;;;;;470118;253;1072;-45
2021/07/01 01:14:17;;;;;;;;;;;20.60;62.70;;;;;;469740;253;1078;-45
2021/07/01 01:16:19;;;;;;;;;;;20.60;62.60;;;;;;461531;258;1186;-45
2021/07/01 01:18:20;;;;;;;;;;;20.60;62.60;;;;;;469723;253;1052;-45
2021/07/01 01:20:21;;;;;;;;;;;20.60;62.70;;;;;;469756;253;1056;-45
2021/07/01 01:22:23;;;;;;;;;;;20.60;62.60;;;;;;461619;257;1179;-45
2021/07/01 01:24:24;;;;;;;;;;;20.60;62.70;;;;;;469774;253;1079;-45
2021/07/01 01:26:25;;;;;;;;;;;20.60;62.70;;;;;;469742;253;2214;-45
2021/07/01 01:28:27;;;;;;;;;;;20.60;62.70;;;;;;461851;257;1145;-45
2021/07/01 01:30:28;;;;;;;;;;;20.60;62.60;;;;;;469701;253;1279;-45
2021/07/01 01:32:29;;;;;;;;;;;20.60;62.70;;;;;;469751;253;1140;-44
2021/07/01 01:34:31;;;;;;;;;;;20.60;62.70;;;;;;461579;258;1099;-45
2021/07/01 01:36:32;;;;;;;;;;;20.60;62.60;;;;;;469821;253;1089;-45
2021/07/01 01:38:33;;;;;;;;;;;20.60;62.60;;;;;;469903;253;1078;-45
2021/07/01 01:40:35;;;;;;;;;;;20.60;62.60;;;;;;461916;257;1052;-45
2021/07/01 01:42:36;;;;;;;;;;;20.60;62.60;;;;;;469672;253;1191;-45
2021/07/01 01:44:37;;;;;;;;;;;20.60;62.60;;;;;;469793;253;1031;-45
2021/07/01 01:46:39;;;;;;;;;;;20.60;62.60;;;;;;461460;258;2196;-45
2021/07/01 01:48:40;;;;;;;;;;;20.60;62.60;;;;;;470187;253;1071;-45
2021/07/01 01:50:41;;;;;;;;;;;20.60;62.70;;;;;;470132;253;1228;-45
2021/07/01 01:52:43;;;;;;;;;;;20.60;62.70;;;;;;461476;257;1309;-45
2021/07/01 01:54:44;;;;;;;;;;;20.60;62.70;;;;;;470124;253;1056;-45
2021/07/01 01:56:48;;;;;;;;;;;20.60;62.70;;;;;;469659;253;1556;-45
2021/07/01 01:58:49;;;;;;;;;;;20.60;62.70;;;;;;461535;258;1073;-45
2021/07/01 02:00:51;;;;;;;;;;;20.60;62.70;;;;;;470069;253;1228;-45
2021/07/01 02:02:52;;;;;;;;;;;20.60;62.70;;;;;;470176;253;1107;-45
2021/07/01 02:04:53;;;;;;;;;;;20.60;62.70;;;;;;461735;257;1109;-45
2021/07/01 02:06:55;;;;;;;;;;;20.60;62.70;;;;;;470065;253;2168;-45
2021/07/01 02:08:56;;;;;;;;;;;20.60;62.60;;;;;;469712;253;1079;-45
2021/07/01 02:10:57;;;;;;;;;;;20.60;62.70;;;;;;461793;257;1488;-45
2021/07/01 02:12:59;;;;;;;;;;;20.60;62.80;;;;;;470143;253;1097;-45
2021/07/01 02:15:00;;;;;;;;;;;20.60;62.80;;;;;;469690;253;1056;-45
2021/07/01 02:17:01;;;;;;;;;;;20.60;62.70;;;;;;461545;257;1294;-45
2021/07/01 02:19:02;;;;;;;;;;;20.60;62.70;;;;;;469728;253;1312;-45
2021/07/01 02:21:04;;;;;;;;;;;20.60;62.70;;;;;;470132;253;1203;-45
2021/07/01 02:23:05;;;;;;;;;;;20.60;62.70;;;;;;461569;258;1088;-45
2021/07/01 02:25:07;;;;;;;;;;;20.60;62.70;;;;;;470186;253;1109;-45
2021/07/01 02:27:08;;;;;;;;;;;20.60;62.70;;;;;;469728;253;2164;-45
2021/07/01 02:29:09;;;;;;;;;;;20.60;62.70;;;;;;461966;257;1112;-45
2021/07/01 02:31:10;;;;;;;;;;;20.60;62.70;;;;;;470068;253;1313;-45
2021/07/01 02:33:12;;;;;;;;;;;20.60;62.70;;;;;;469731;253;1090;-45
2021/07/01 02:35:13;;;;;;;;;;;20.60;62.70;;;;;;462001;257;1073;-45
2021/07/01 02:37:14;;;;;;;;;;;20.60;62.70;;;;;;470095;253;1084;-45
2021/07/01 02:39:16;;;;;;;;;;;20.60;62.70;;;;;;470177;253;1038;-45
2021/07/01 02:41:17;;;;;;;;;;;20.60;62.80;;;;;;461893;257;1069;-45
2021/07/01 02:43:18;;;;;;;;;;;20.60;62.80;;;;;;469698;253;1089;-45
2021/07/01 02:45:20;;;;;;;;;;;20.50;62.80;;;;;;461975;258;1056;-45
2021/07/01 02:47:21;;;;;;;;;;;20.60;62.70;;;;;;469871;253;2208;-45
2021/07/01 02:49:22;;;;;;;;;;;20.60;62.70;;;;;;470169;253;1069;-45
2021/07/01 02:51:24;;;;;;;;;;;20.60;62.70;;;;;;461960;257;1117;-45
2021/07/01 02:53:25;;;;;;;;;;;20.60;62.70;;;;;;470068;253;1100;-45
2021/07/01 02:55:26;;;;;;;;;;;20.60;62.70;;;;;;470157;253;1077;-45
2021/07/01 02:57:28;;;;;;;;;;;20.60;62.70;;;;;;461926;257;1080;-45
2021/07/01 02:59:29;;;;;;;;;;;20.60;62.70;;;;;;469965;253;1056;-45
2021/07/01 03:01:30;;;;;;;;;;;20.60;62.70;;;;;;469670;253;1340;-45
2021/07/01 03:03:32;;;;;;;;;;;20.60;62.70;;;;;;461556;258;1098;-45
2021/07/01 03:05:33;;;;;;;;;;;20.60;62.70;;;;;;469734;253;1251;-45
2021/07/01 03:07:34;;;;;;;;;;;20.60;62.60;;;;;;470100;253;2202;-45
2021/07/01 03:09:36;;;;;;;;;;;20.60;62.70;;;;;;461936;257;1059;-45
2021/07/01 03:11:37;;;;;;;;;;;20.60;62.70;;;;;;469697;253;1087;-45
2021/07/01 03:13:38;;;;;;;;;;;20.60;62.70;;;;;;469717;253;1173;-45
2021/07/01 03:15:39;;;;;;;;;;;20.60;62.80;;;;;;461544;258;1236;-45
2021/07/01 03:17:41;;;;;;;;;;;20.60;62.70;;;;;;469892;253;1204;-45
2021/07/01 03:19:42;;;;;;;;;;;20.60;62.70;;;;;;469746;253;1078;-45
2021/07/01 03:21:43;;;;;;;;;;;20.60;62.70;;;;;;461576;258;1077;-45
2021/07/01 03:23:45;;;;;;;;;;;20.60;62.70;;;;;;469726;253;1085;-46
2021/07/01 03:25:46;;;;;;;;;;;20.60;62.70;;;;;;470082;253;984;-45
2021/07/01 03:27:47;;;;;;;;;;;20.60;62.70;;;;;;461925;257;2203;-45
2021/07/01 03:29:49;;;;;;;;;;;20.60;62.70;;;;;;470130;253;1138;-45
2021/07/01 03:31:50;;;;;;;;;;;20.60;62.80;;;;;;470023;253;1306;-45
2021/07/01 03:33:51;;;;;;;;;;;20.60;62.80;;;;;;461659;257;1085;-45
2021/07/01 03:35:53;;;;;;;;;;;20.60;62.80;;;;;;469735;253;1072;-45
2021/07/01 03:37:54;;;;;;;;;;;20.60;62.70;;;;;;470117;253;1091;-45
2021/07/01 03:39:55;;;;;;;;;;;20.60;62.70;;;;;;461967;257;1154;-45
2021/07/01 03:41:57;;;;;;;;;;;20.60;62.60;;;;;;470091;253;1135;-45
2021/07/01 03:43:58;;;;;;;;;;;20.60;62.70;;;;;;469901;253;1093;-45
2021/07/01 03:46:00;;;;;;;;;;;20.60;62.70;;;;;;461928;257;1227;-45
2021/07/01 03:48:01;;;;;;;;;;;20.60;62.70;;;;;;469732;253;2179;-45
2021/07/01 03:50:02;;;;;;;;;;;20.60;62.70;;;;;;470143;253;1167;-45
2021/07/01 03:52:04;;;;;;;;;;;20.60;62.60;;;;;;461943;257;1383;-45
2021/07/01 03:54:05;;;;;;;;;;;20.60;62.60;;;;;;470144;253;1181;-45
2021/07/01 03:56:06;;;;;;;;;;;20.60;62.60;;;;;;470123;253;1175;-45
2021/07/01 03:58:08;;;;;;;;;;;20.60;62.60;;;;;;461556;257;1200;-45
2021/07/01 04:00:09;;;;;;;;;;;20.60;62.60;;;;;;470140;253;1086;-45
2021/07/01 04:02:10;;;;;;;;;;;20.60;62.60;;;;;;469569;253;1342;-45
2021/07/01 04:04:12;;;;;;;;;;;20.60;62.60;;;;;;461946;257;1073;-45
2021/07/01 04:06:13;;;;;;;;;;;20.60;62.60;;;;;;469633;253;1178;-45
2021/07/01 04:08:14;;;;;;;;;;;20.60;62.60;;;;;;470061;253;2210;-45
2021/07/01 04:10:17;;;;;;;;;;;20.60;62.60;;;;;;461752;257;1092;-45
2021/07/01 04:12:17;;;;;;;;;;;20.60;62.60;;;;;;469469;254;2123;-45
2021/07/01 04:14:18;;;;;;;;;;;20.60;62.70;;;;;;469986;253;1082;-45
2021/07/01 04:16:20;;;;;;;;;;;20.60;62.60;;;;;;461435;258;1244;-45
2021/07/01 04:18:21;;;;;;;;;;;20.60;62.70;;;;;;469804;253;1163;-45
2021/07/01 04:20:22;;;;;;;;;;;20.60;62.70;;;;;;470091;253;1628;-45
2021/07/01 04:22:24;;;;;;;;;;;20.60;62.70;;;;;;461405;258;1165;-45
2021/07/01 04:24:25;;;;;;;;;;;20.60;62.70;;;;;;469651;254;2164;-45
2021/07/01 04:26:26;;;;;;;;;;;20.60;62.70;;;;;;469582;253;1132;-45
2021/07/01 04:28:28;;;;;;;;;;;20.60;62.70;;;;;;461631;257;2211;-45
2021/07/01 04:30:29;;;;;;;;;;;20.60;62.60;;;;;;469756;253;1086;-45
2021/07/01 04:32:30;;;;;;;;;;;20.60;62.60;;;;;;469971;253;1242;-45
2021/07/01 04:34:32;;;;;;;;;;;20.60;62.60;;;;;;461852;257;1051;-45
2021/07/01 04:36:33;;;;;;;;;;;20.60;62.70;;;;;;469600;253;1231;-45
2021/07/01 04:38:34;;;;;;;;;;;20.60;62.70;;;;;;469552;253;1046;-45
2021/07/01 04:40:36;;;;;;;;;;;20.60;62.60;;;;;;461390;258;1067;-45
2021/07/01 04:42:37;;;;;;;;;;;20.60;62.70;;;;;;469591;253;1161;-45
2021/07/01 04:44:38;;;;;;;;;;;20.60;62.60;;;;;;469665;253;1107;-45
2021/07/01 04:46:39;;;;;;;;;;;20.60;62.60;;;;;;461444;257;1645;-45
2021/07/01 04:48:41;;;;;;;;;;;20.50;62.70;;;;;;469658;253;2224;-45
2021/07/01 04:50:42;;;;;;;;;;;20.60;62.70;;;;;;469660;253;1031;-45
2021/07/01 04:52:43;;;;;;;;;;;20.60;62.70;;;;;;461815;257;1163;-45
2021/07/01 04:54:45;;;;;;;;;;;20.60;62.70;;;;;;469724;253;1061;-45
2021/07/01 04:56:46;;;;;;;;;;;20.60;62.70;;;;;;469719;253;1101;-45
2021/07/01 04:58:47;;;;;;;;;;;20.60;62.70;;;;;;461432;257;1175;-45
2021/07/01 05:00:49;;;;;;;;;;;20.60;62.60;;;;;;469844;253;1428;-45
2021/07/01 05:02:50;;;;;;;;;;;20.60;62.70;;;;;;469669;253;1155;-45
2021/07/01 05:04:51;;;;;;;;;;;20.60;62.60;;;;;;461269;258;1096;-45
2021/07/01 05:06:53;;;;;;;;;;;20.60;62.60;;;;;;469449;253;1379;-45
2021/07/01 05:08:54;;;;;;;;;;;20.60;62.60;;;;;;469714;253;2143;-45
2021/07/01 05:10:55;;;;;;;;;;;20.60;62.60;;;;;;461391;257;1142;-45
2021/07/01 05:12:58;;;;;;;;;;;20.60;62.70;;;;;;469548;253;1077;-45
2021/07/01 05:14:58;;;;;;;;;;;20.60;62.60;;;;;;469832;253;2181;-45
2021/07/01 05:16:59;;;;;;;;;;;20.60;62.50;;;;;;461406;257;1228;-45
2021/07/01 05:19:01;;;;;;;;;;;20.60;62.60;;;;;;469679;253;1373;-45
2021/07/01 05:21:02;;;;;;;;;;;20.60;62.60;;;;;;469344;253;1341;-45
2021/07/01 05:23:03;;;;;;;;;;;20.60;62.60;;;;;;461265;257;1087;-45
2021/07/01 05:25:05;;;;;;;;;;;20.60;62.70;;;;;;469366;253;1279;-45
2021/07/01 05:27:06;;;;;;;;;;;20.60;62.70;;;;;;469388;253;1137;-45
2021/07/01 05:29:07;;;;;;;;;;;20.60;62.70;;;;;;461307;258;2144;-45
2021/07/01 05:31:09;;;;;;;;;;;20.60;62.60;;;;;;469468;253;1269;-45
2021/07/01 05:33:10;;;;;;;;;;;20.60;62.60;;;;;;469661;253;1173;-45
2021/07/01 05:35:11;;;;;;;;;;;20.60;62.60;;;;;;461164;257;1147;-45
2021/07/01 05:37:12;;;;;;;;;;;20.60;62.60;;;;;;469280;253;1157;-45
2021/07/01 05:39:14;;;;;;;;;;;20.60;62.60;;;;;;469600;253;1093;-45
2021/07/01 05:41:15;;;;;;;;;;;20.60;62.60;;;;;;461091;258;1177;-45
2021/07/01 05:43:17;;;;;;;;;;;20.60;62.60;;;;;;469422;253;1103;-45
2021/07/01 05:45:18;;;;;;;;;;;20.60;62.60;;;;;;469348;253;1126;-45
2021/07/01 05:47:19;;;;;;;;;;;20.60;62.60;;;;;;461251;257;1199;-45
2021/07/01 05:49:20;;;;;;;;;;;20.60;62.60;;;;;;469267;253;2207;-45
2021/07/01 05:51:22;;;;;;;;;;;20.60;62.60;;;;;;469278;253;1098;-45
2021/07/01 05:53:26;;;;;;;;;;;20.60;62.60;;;;;;461120;258;1101;-45
2021/07/01 05:55:26;;;;;;;;;;;20.60;62.70;;;;;;469522;254;1652;-45
2021/07/01 05:57:28;;;;;;;;;;;20.50;62.70;;;;;;469125;253;1187;-45
2021/07/01 05:59:29;;;;;;;;;;;20.60;62.70;;;;;;461389;257;1148;-45
2021/07/01 06:01:30;;;;;;;;;;;20.60;62.60;;;;;;469161;253;1515;-45
2021/07/01 06:03:32;;;;;;;;;;;20.60;62.60;;;;;;469300;253;1190;-45
2021/07/01 06:05:33;;;;;;;;;;;20.60;62.60;;;;;;461040;257;1163;-45
2021/07/01 06:07:34;;;;;;;;;;;20.50;62.60;;;;;;469331;253;1173;-45
2021/07/01 06:09:36;;;;;;;;;;;20.60;62.70;;;;;;469252;253;2198;-45
2021/07/01 06:11:37;;;;;;;;;;;20.60;62.60;;;;;;460993;257;1728;-45
2021/07/01 06:13:38;;;;;;;;;;;20.60;62.60;;;;;;469243;253;1199;-45
2021/07/01 06:15:39;;;;;;;;;;;20.60;62.60;;;;;;469179;253;1067;-44
2021/07/01 06:17:41;;;;;;;;;;;20.60;62.60;;;;;;461181;257;1265;-45
2021/07/01 06:19:42;;;;;;;;;;;20.60;62.60;;;;;;469432;253;1168;-45
2021/07/01 06:21:43;;;;;;;;;;;20.60;62.60;;;;;;469117;253;1170;-45
2021/07/01 06:23:46;;;;;;;;;;;20.60;62.60;;;;;;461077;258;1231;-45
2021/07/01 06:25:46;;;;;;;;;;;20.60;62.70;;;;;;469121;254;2135;-45
2021/07/01 06:27:47;;;;;;;;;;;20.60;62.60;;;;;;469188;253;1093;-45
2021/07/01 06:29:49;;;;;;;;;;;20.60;62.60;;;;;;461191;257;2145;-45
2021/07/01 06:31:50;;;;;;;;;;;20.60;62.60;;;;;;469132;253;1156;-45
2021/07/01 06:33:51;;;;;;;;;;;20.60;62.60;;;;;;469214;253;1309;-45
2021/07/01 06:35:54;;;;;;;;;;;20.50;62.60;;;;;;461157;257;1194;-45
2021/07/01 06:37:54;;;;;;;;;;;20.60;62.70;;;;;;469165;254;2115;-45
2021/07/01 06:39:55;;;;;;;;;;;20.50;62.60;;;;;;469192;253;1161;-45
2021/07/01 06:41:57;;;;;;;;;;;20.60;62.60;;;;;;460920;257;1593;-45
2021/07/01 06:43:58;;;;;;;;;;;20.60;62.60;;;;;;469063;253;1072;-45
2021/07/01 06:45:59;;;;;;;;;;;20.60;62.60;;;;;;469155;253;1215;-45
2021/07/01 06:48:01;;;;;;;;;;;20.60;62.60;;;;;;461074;257;1294;-45
2021/07/01 06:50:02;;;;;;;;;;;20.60;62.60;;;;;;469205;253;2121;-44
2021/07/01 06:52:04;;;;;;;;;;;20.60;62.60;;;;;;468980;253;1165;-45
2021/07/01 06:54:05;;;;;;;;;;;20.60;62.60;;;;;;460865;258;2520;-45
2021/07/01 06:56:06;;;;;;;;;;;20.60;62.50;;;;;;469361;253;1213;-45
2021/07/01 06:58:07;;;;;;;;;;;20.60;62.40;;;;;;469252;253;1106;-45
2021/07/01 07:00:09;;;;;;;;;;;20.60;62.30;;;;;;461109;257;1206;-45
2021/07/01 07:02:10;;;;;;;;;;;20.60;62.30;;;;;;468924;253;1489;-45
2021/07/01 07:04:11;;;;;;;;;;;20.70;62.20;;;;;;469149;253;1112;-45
2021/07/01 07:06:12;;;;;;;;;;;20.70;62.10;;;;;;460810;257;1243;-45
2021/07/01 07:08:14;;;;;;;;;;;20.70;62.10;;;;;;469285;253;2141;-45
2021/07/01 07:10:15;;;;;;;;;;;20.70;62.10;;;;;;469180;253;1130;-45
2021/07/01 07:12:16;;;;;;;;;;;20.70;62.00;;;;;;460898;257;1107;-45
2021/07/01 07:14:18;;;;;;;;;;;20.70;62.00;;;;;;469152;253;1072;-45
2021/07/01 07:16:19;;;;;;;;;;;20.80;62.00;;;;;;469233;253;1104;-45
2021/07/01 07:18:20;;;;;;;;;;;20.80;61.90;;;;;;460986;257;1139;-45
2021/07/01 07:20:22;;;;;;;;;;;20.70;61.90;;;;;;469015;253;1271;-45
2021/07/01 07:22:23;;;;;;;;;;;20.70;62.00;;;;;;468369;253;1135;-45
2021/07/01 07:24:24;;;;;;;;;;;20.70;62.00;;;;;;460325;258;1148;-45
2021/07/01 07:26:26;;;;;;;;;;;20.70;61.90;;;;;;468947;253;1181;-45
2021/07/01 07:28:27;;;;;;;;;;;20.70;62.00;;;;;;469020;253;2156;-45
2021/07/01 07:30:28;;;;;;;;;;;20.70;62.00;;;;;;460847;258;1281;-45
2021/07/01 07:32:30;;;;;;;;;;;20.70;62.00;;;;;;469022;253;1141;-45
2021/07/01 07:34:31;;;;;;;;;;;20.70;62.00;;;;;;468995;253;1110;-45
2021/07/01 07:36:33;;;;;;;;;;;20.70;62.00;;;;;;460856;257;1175;-45
2021/07/01 07:38:34;;;;;;;;;;;20.70;62.00;;;;;;469181;253;1123;-45
2021/07/01 07:40:36;;;;;;;;;;;20.70;62.10;;;;;;468984;253;1465;-45
2021/07/01 07:42:37;;;;;;;;;;;20.70;62.10;;;;;;460749;257;1368;-45
2021/07/01 07:44:39;;;;;;;;;;;20.70;62.10;;;;;;468913;253;1055;-45
2021/07/01 07:46:41;;;;;;;;;;;20.70;62.10;;;;;;468979;253;1298;-45
2021/07/01 07:48:42;;;;;;;;;;;20.70;62.20;;;;;;460861;257;2176;-45
2021/07/01 07:50:43;;;;;;;;;;;20.70;62.20;;;;;;469193;253;1433;-45
2021/07/01 07:52:45;;;;;;;;;;;20.70;62.20;;;;;;469129;253;1141;-45
2021/07/01 07:54:46;;;;;;;;;;;20.70;62.20;;;;;;460911;258;1081;-45
2021/07/01 07:56:48;;;;;;;;;;;20.70;62.20;;;;;;468762;253;1193;-45
2021/07/01 07:58:49;;;;;;;;;;;20.70;62.10;;;;;;468843;253;1100;-45
2021/07/01 08:00:50;;;;;;;;;;;20.70;62.10;;;;;;459251;256;1217;-45
2021/07/01 08:02:52;;;;;;;;;;;20.70;62.10;;;;;;477059;249;1201;-45
2021/07/01 08:04:53;;;;;;;;;;;20.70;62.10;;;;;;460235;258;1072;-45
2021/07/01 08:06:54;;;;;;;;;;;20.70;62.10;;;;;;468557;253;1219;-45
2021/07/01 08:08:56;;;;;;;;;;;20.70;62.10;;;;;;477294;249;2187;-45
2021/07/01 08:10:57;;;;;;;;;;;20.70;62.00;;;;;;476987;249;1155;-45
2021/07/01 08:13:02;;;;;;;;;;;20.70;62.10;;;;;;477085;249;1347;-45
2021/07/01 08:15:00;;;;;;;;;;;20.70;62.10;;;;;;460139;258;2113;-45
2021/07/01 08:17:01;;;;;;;;;;;20.70;62.20;;;;;;468963;253;1090;-45
2021/07/01 08:19:02;;;;;;;;;;;20.70;62.10;;;;;;476836;250;1113;-45
2021/07/01 08:21:04;;;;;;;;;;;20.70;62.10;;;;;;459261;259;1187;-45
2021/07/01 08:23:05;;;;;;;;;;;20.70;62.10;;;;;;459721;258;1270;-45
2021/07/01 08:25:06;;;;;;;;;;;20.70;62.10;;;;;;459469;258;1191;-45
2021/07/01 08:27:08;;;;;;;;;;;20.70;62.20;;;;;;459955;258;1159;-45
2021/07/01 08:29:09;;;;;;;;;;;20.60;62.20;;;;;;474468;247;2165;-45
2021/07/01 08:31:11;;;;;;;;;;;20.60;62.20;;;;;;459935;259;1122;-45
2021/07/01 08:33:12;;;;;;;;;;;20.70;62.20;;;;;;459528;258;1133;-45
2021/07/01 08:35:13;;;;;;;;;;;20.70;62.30;;;;;;467491;253;1125;-45
2021/07/01 08:37:14;;;;;;;;;;;20.70;62.20;;;;;;467349;254;1133;-45
2021/07/01 08:39:16;;;;;;;;;;;20.70;62.20;;;;;;467609;254;1169;-45
2021/07/01 08:41:17;;;;;;;;;;;20.70;62.10;;;;;;459549;259;1111;-45
2021/07/01 08:43:19;;;;;;;;;;;20.70;62.20;;;;;;467611;255;1125;-45
2021/07/01 08:45:20;;;;;;;;;;;20.70;62.20;;;;;;467738;255;1115;-45
2021/07/01 08:47:21;;;;;;;;;;;20.70;62.20;;;;;;459296;259;1185;-45
2021/07/01 08:49:23;;;;;;;;;;;20.70;62.20;;;;;;467474;254;2216;-45
2021/07/01 08:51:24;;;;;;;;;;;20.70;62.10;;;;;;467395;254;1244;-45
2021/07/01 08:53:25;;;;;;;;;;;20.70;62.10;;;;;;459238;259;1165;-45
2021/07/01 08:55:27;;;;;;;;;;;20.70;62.10;;;;;;466831;254;1212;-45
2021/07/01 08:57:29;;;;;;;;;;;20.70;62.10;;;;;;467543;255;1173;-45
2021/07/01 08:59:30;;;;;;;;;;;20.70;62.00;;;;;;459250;259;1126;-45
2021/07/01 09:01:32;;;;;;;;;;;20.70;62.00;;;;;;467594;254;1286;-45
2021/07/01 09:03:33;;;;;;;;;;;20.70;61.90;;;;;;467596;255;801;-45
2021/07/01 09:05:34;;;;;;;;;;;20.70;62.00;;;;;;459962;259;1047;-45
2021/07/01 09:07:36;;;;;;;;;;;20.70;61.90;;;;;;467579;254;1358;-45
2021/07/01 09:09:37;;;;;;;;;;;20.70;62.00;;;;;;467600;254;2204;-45
2021/07/01 09:11:38;;;;;;;;;;;20.70;61.90;;;;;;459629;259;1500;-45
2021/07/01 09:13:40;;;;;;;;;;;20.70;61.90;;;;;;467600;254;1128;-45
2021/07/01 09:15:41;;;;;;;;;;;20.70;62.00;;;;;;467622;254;1401;-45
2021/07/01 09:17:48;;;;;;;;;;;20.70;61.90;;;;;;459266;259;1260;-44
2021/07/01 09:19:49;;;;;;;;;;;20.70;61.90;;;;;;467322;255;1139;-45
2021/07/01 09:21:50;;;;;;;;;;;20.70;61.90;;;;;;467290;255;1268;-45
2021/07/01 09:23:51;;;;;;;;;;;20.80;61.90;;;;;;459485;259;1090;-45
2021/07/01 09:25:53;;;;;;;;;;;20.70;62.00;;;;;;467647;254;1144;-45
2021/07/01 09:27:54;;;;;;;;;;;20.70;62.00;;;;;;467618;254;1136;-45
2021/07/01 09:29:57;;;;;;;;;;;20.70;62.00;;;;;;459533;259;2212;-45
2021/07/01 09:31:57;;;;;;;;;;;20.70;62.10;;;;;;467415;254;2018;-45
2021/07/01 09:33:58;;;;;;;;;;;20.70;62.10;;;;;;459410;255;1111;-45
2021/07/01 09:36:00;;;;;;;;;;;20.70;62.20;;;;;;466817;254;1105;-45
2021/07/01 09:38:03;;;;;;;;;;;20.60;62.10;;;;;;467003;254;1374;-45
2021/07/01 09:40:02;;;;;;;;;;;20.70;62.30;;;;;;459131;259;1378;-45
2021/07/01 09:42:04;;;;;;;;;;;20.60;62.20;;;;;;467447;254;1421;-45
2021/07/01 09:44:05;;;;;;;;;;;20.70;62.20;;;;;;467634;254;1102;-45
2021/07/01 09:46:11;;;;;;;;;;;20.60;62.20;;;;;;459252;259;1108;-45
2021/07/01 09:48:09;;;;;;;;;;;20.60;62.20;;;;;;467154;254;1732;-45
2021/07/01 09:50:09;;;;;;;;;;;20.60;62.30;;;;;;467383;254;2247;-45
2021/07/01 09:52:11;;;;;;;;;;;20.60;62.30;;;;;;459213;259;1194;-45
2021/07/01 09:54:12;;;;;;;;;;;20.60;62.20;;;;;;467427;255;1109;-44
2021/07/01 09:56:13;;;;;;;;;;;20.60;62.20;;;;;;467488;255;1126;-45
2021/07/01 09:58:15;;;;;;;;;;;20.60;62.30;;;;;;459518;259;1113;-45
2021/07/01 10:00:16;;;;;;;;;;;20.60;62.40;;;;;;467579;254;1085;-45
2021/07/01 10:02:17;;;;;;;;;;;20.60;62.50;;;;;;467479;255;1372;-45
2021/07/01 10:04:19;;;;;;;;;;;20.50;62.50;;;;;;459490;258;1090;-45
2021/07/01 10:06:20;;;;;;;;;;;20.60;62.40;;;;;;467478;254;1422;-45
2021/07/01 10:08:21;;;;;;;;;;;20.60;62.40;;;;;;467325;255;1241;-45
2021/07/01 10:10:23;;;;;;;;;;;20.50;62.40;;;;;;459191;259;2220;-45
2021/07/01 10:12:24;;;;;;;;;;;20.60;62.40;;;;;;467371;255;1195;-44
2021/07/01 10:14:26;;;;;;;;;;;20.50;62.50;;;;;;467386;255;1098;-45
2021/07/01 10:16:29;;;;;;;;;;;20.60;62.50;;;;;;459280;259;1530;-45
2021/07/01 10:18:28;;;;;;;;;;;20.60;62.40;;;;;;467309;254;1418;-45
2021/07/01 10:20:29;;;;;;;;;;;20.60;62.40;;;;;;467546;254;1137;-45
2021/07/01 10:22:31;;;;;;;;;;;20.60;62.40;;;;;;459309;259;1159;-45
2021/07/01 10:24:32;;;;;;;;;;;20.50;62.50;;;;;;467544;254;1086;-45
2021/07/01 10:26:33;;;;;;;;;;;20.50;62.50;;;;;;466838;254;1199;-45
2021/07/01 10:28:35;;;;;;;;;;;20.60;62.40;;;;;;459346;256;1324;-45
2021/07/01 10:30:36;;;;;;;;;;;20.60;62.40;;;;;;467337;254;2207;-45
2021/07/01 10:32:37;;;;;;;;;;;20.60;62.40;;;;;;467306;255;1159;-45
2021/07/01 10:34:39;;;;;;;;;;;20.60;62.30;;;;;;459328;259;1147;-45
2021/07/01 10:36:40;;;;;;;;;;;20.60;62.40;;;;;;467483;254;1152;-45
2021/07/01 10:38:41;;;;;;;;;;;20.60;62.40;;;;;;467617;255;1162;-45
2021/07/01 10:40:42;;;;;;;;;;;20.60;62.40;;;;;;459443;259;1169;-45
2021/07/01 10:42:44;;;;;;;;;;;20.60;62.40;;;;;;467373;254;1131;-45
2021/07/01 10:44:45;;;;;;;;;;;20.60;62.30;;;;;;467452;254;1106;-45
2021/07/01 10:46:48;;;;;;;;;;;20.60;62.40;;;;;;459247;259;1263;-45
2021/07/01 10:48:48;;;;;;;;;;;20.60;62.40;;;;;;467317;254;2068;-45
2021/07/01 10:50:49;;;;;;;;;;;20.60;62.40;;;;;;467403;254;2212;-45
2021/07/01 10:52:50;;;;;;;;;;;20.60;62.50;;;;;;459460;259;1190;-45
2021/07/01 10:54:52;;;;;;;;;;;20.60;62.40;;;;;;467660;255;1243;-45
2021/07/01 10:56:54;;;;;;;;;;;20.60;62.40;;;;;;467768;254;1410;-45
2021/07/01 10:58:54;;;;;;;;;;;20.60;62.40;;;;;;459655;259;1803;-45
2021/07/01 11:00:56;;;;;;;;;;;20.60;62.40;;;;;;467796;254;1192;-45
2021/07/01 11:02:57;;;;;;;;;;;20.60;62.40;;;;;;467501;254;1135;-45
2021/07/01 11:04:58;;;;;;;;;;;20.60;62.40;;;;;;459551;259;1201;-45
2021/07/01 11:07:00;;;;;;;;;;;20.50;62.40;;;;;;467661;254;1149;-46
2021/07/01 11:09:01;;;;;;;;;;;20.60;62.40;;;;;;467541;254;1232;-44
2021/07/01 11:11:03;;;;;;;;;;;20.50;62.50;;;;;;459255;259;2212;-44
2021/07/01 11:13:04;;;;;;;;;;;20.50;62.60;;;;;;467739;254;1155;-44
2021/07/01 11:15:05;;;;;;;;;;;20.50;62.50;;;;;;467415;255;1252;-44
2021/07/01 11:17:07;;;;;;;;;;;20.60;62.40;;;;;;459440;259;1277;-44
2021/07/01 11:19:08;;;;;;;;;;;20.60;62.40;;;;;;467478;255;1116;-44
2021/07/01 11:21:09;;;;;;;;;;;20.60;62.40;;;;;;467292;255;1333;-44
2021/07/01 11:23:11;;;;;;;;;;;20.60;62.40;;;;;;459399;259;1209;-44
2021/07/01 11:25:12;;;;;;;;;;;20.60;62.40;;;;;;467727;253;1105;-44
2021/07/01 11:27:13;;;;;;;;;;;20.60;62.40;;;;;;467473;254;1306;-44
2021/07/01 11:29:15;;;;;;;;;;;20.60;62.40;;;;;;459222;259;1093;-44
2021/07/01 11:31:16;;;;;;;;;;;20.60;62.40;;;;;;467432;255;2200;-44
2021/07/01 11:33:17;;;;;;;;;;;20.60;62.40;;;;;;467463;255;1218;-44
2021/07/01 11:35:19;;;;;;;;;;;20.60;62.40;;;;;;459397;259;1134;-44
2021/07/01 11:37:20;;;;;;;;;;;20.50;62.40;;;;;;467592;254;1326;-44
2021/07/01 11:39:21;;;;;;;;;;;20.50;62.50;;;;;;459665;256;1131;-44
2021/07/01 11:41:22;;;;;;;;;;;20.60;62.50;;;;;;468166;254;2069;-44
2021/07/01 11:43:24;;;;;;;;;;;20.60;62.40;;;;;;467912;254;1047;-44
2021/07/01 11:45:25;;;;;;;;;;;20.60;62.40;;;;;;460160;258;915;-44
2021/07/01 11:47:29;;;;;;;;;;;20.60;62.40;;;;;;467757;254;1251;-44
2021/07/01 11:49:28;;;;;;;;;;;20.60;62.40;;;;;;468020;254;1966;-44
2021/07/01 11:51:31;;;;;;;;;;;20.60;62.30;;;;;;459561;256;2205;-44
2021/07/01 11:53:30;;;;;;;;;;;20.60;62.30;;;;;;467990;254;2175;-44
2021/07/01 11:55:32;;;;;;;;;;;20.60;62.30;;;;;;468178;254;777;-44
2021/07/01 11:57:33;;;;;;;;;;;20.60;62.40;;;;;;459553;259;726;-44